createdAt,value
2018-06-19T00:00:27.383Z,56.90
2018-06-19T00:01:27.344Z,56.81
2018-06-19T00:02:27.331Z,56.81
2018-06-19T00:03:27.318Z,56.70
2018-06-19T00:04:27.305Z,56.60
2018-06-19T00:05:27.293Z,56.81
2018-06-19T00:06:27.304Z,56.70
2018-06-19T00:07:27.275Z,56.70
2018-06-19T00:08:27.268Z,56.70
2018-06-19T00:09:27.256Z,56.81
2018-06-19T00:10:27.243Z,56.51
2018-06-19T00:11:27.257Z,56.30
2018-06-19T00:12:27.217Z,56.51
2018-06-19T00:13:27.214Z,56.81
2018-06-19T00:14:27.202Z,56.60
2018-06-19T00:15:27.189Z,56.60
2018-06-19T00:16:27.177Z,56.01
2018-06-19T00:17:27.183Z,56.70
2018-06-19T00:18:27.171Z,56.60
2018-06-19T00:19:27.149Z,57.00
2018-06-19T00:20:27.142Z,56.70
2018-06-19T00:21:27.130Z,56.70
2018-06-19T00:22:27.144Z,56.60
2018-06-19T00:23:27.104Z,56.70
2018-06-19T00:24:27.091Z,56.90
2018-06-19T00:25:27.080Z,56.60
2018-06-19T00:26:27.074Z,56.30
2018-06-19T00:27:27.063Z,56.60
2018-06-19T00:28:27.099Z,56.51
2018-06-19T00:29:27.035Z,56.40
2018-06-19T00:30:27.030Z,56.70
2018-06-19T00:31:27.017Z,56.21
2018-06-19T00:32:27.010Z,56.10
2018-06-19T00:33:26.999Z,56.21
2018-06-19T00:34:27.005Z,56.51
2018-06-19T00:35:26.972Z,56.51
2018-06-19T00:36:26.959Z,56.40
2018-06-19T00:37:26.950Z,56.40
2018-06-19T00:38:26.937Z,56.51
2018-06-19T00:39:26.961Z,56.30
2018-06-19T00:40:26.920Z,56.10
2018-06-19T00:41:26.917Z,56.40
2018-06-19T00:42:26.903Z,56.30
2018-06-19T00:43:26.884Z,56.30
2018-06-19T00:44:26.873Z,56.40
2018-06-19T00:45:26.882Z,56.40
2018-06-19T00:46:26.912Z,56.40
2018-06-19T00:47:26.838Z,56.30
2018-06-19T00:48:26.833Z,56.10
2018-06-19T00:49:26.821Z,56.30
2018-06-19T00:50:26.844Z,56.51
2018-06-19T00:51:26.802Z,56.40
2018-06-19T00:52:26.790Z,56.30
2018-06-19T00:53:26.779Z,56.51
2018-06-19T00:54:26.770Z,56.51
2018-06-19T00:55:26.753Z,56.10
2018-06-19T00:56:26.802Z,56.30
2018-06-19T00:57:26.732Z,56.51
2018-06-19T00:58:26.719Z,56.40
2018-06-19T00:59:26.715Z,56.30
2018-06-19T01:00:26.703Z,56.51
2018-06-19T01:01:26.709Z,56.51
2018-06-19T01:02:26.677Z,56.40
2018-06-19T01:03:26.675Z,56.21
2018-06-19T01:04:26.660Z,56.21
2018-06-19T01:05:26.649Z,56.70
2018-06-19T01:06:26.676Z,56.60
2018-06-19T01:07:26.622Z,56.70
2018-06-19T01:08:26.614Z,56.30
2018-06-19T01:09:26.608Z,56.70
2018-06-19T01:10:26.592Z,56.70
2018-06-19T01:11:26.589Z,56.21
2018-06-19T01:12:26.599Z,56.10
2018-06-19T01:13:26.560Z,56.40
2018-06-19T01:14:26.577Z,56.21
2018-06-19T01:15:26.534Z,56.30
2018-06-19T01:16:26.526Z,56.51
2018-06-19T01:17:26.515Z,56.70
2018-06-19T01:18:26.523Z,56.70
2018-06-19T01:19:26.491Z,56.51
2018-06-19T01:20:26.478Z,56.10
2018-06-19T01:21:26.466Z,56.30
2018-06-19T01:22:26.452Z,56.01
2018-06-19T01:23:26.477Z,56.60
2018-06-19T01:24:26.434Z,56.40
2018-06-19T01:25:26.424Z,56.10
2018-06-19T01:26:26.416Z,56.40
2018-06-19T01:27:26.400Z,56.01
2018-06-19T01:28:26.390Z,56.51
2018-06-19T01:29:26.415Z,56.51
2018-06-19T01:30:26.362Z,56.30
2018-06-19T01:31:26.357Z,56.30
2018-06-19T01:32:26.346Z,56.10
2018-06-19T01:33:26.335Z,56.51
2018-06-19T01:34:26.335Z,56.30
2018-06-19T01:35:26.313Z,56.21
2018-06-19T01:36:26.299Z,56.60
2018-06-19T01:37:26.311Z,56.40
2018-06-19T01:38:26.281Z,56.30
2018-06-19T01:39:26.285Z,56.30
2018-06-19T01:40:26.250Z,56.30
2018-06-19T01:41:26.238Z,56.10
2018-06-19T01:42:26.223Z,56.40
2018-06-19T01:43:26.220Z,56.60
2018-06-19T01:44:26.206Z,56.01
2018-06-19T01:45:26.219Z,56.10
2018-06-19T01:46:26.184Z,56.30
2018-06-19T01:47:26.197Z,56.01
2018-06-19T01:48:26.156Z,55.91
2018-06-19T01:49:26.152Z,55.61
2018-06-19T01:50:26.139Z,55.80
2018-06-19T01:51:26.125Z,56.01
2018-06-19T01:52:26.130Z,56.21
2018-06-19T01:53:26.102Z,55.71
2018-06-19T01:54:26.093Z,55.91
2018-06-19T01:55:26.085Z,55.61
2018-06-19T01:56:26.079Z,55.91
2018-06-19T01:57:26.088Z,56.21
2018-06-19T01:58:26.054Z,55.80
2018-06-19T01:59:26.043Z,56.10
2018-06-19T02:00:26.046Z,55.71
2018-06-19T02:01:26.015Z,55.91
2018-06-19T02:02:26.043Z,56.01
2018-06-19T02:03:25.999Z,55.80
2018-06-19T02:04:25.995Z,55.91
2018-06-19T02:05:25.973Z,55.80
2018-06-19T02:06:25.964Z,56.21
2018-06-19T02:07:25.955Z,55.80
2018-06-19T02:08:25.974Z,55.91
2018-06-19T02:09:25.936Z,56.10
2018-06-19T02:10:25.924Z,55.91
2018-06-19T02:11:25.912Z,55.61
2018-06-19T02:12:25.898Z,55.80
2018-06-19T02:13:25.887Z,56.21
2018-06-19T02:14:25.899Z,56.10
2018-06-19T02:15:25.871Z,55.51
2018-06-19T02:16:25.863Z,55.61
2018-06-19T02:17:25.853Z,55.80
2018-06-19T02:18:25.842Z,55.71
2018-06-19T02:19:25.842Z,55.91
2018-06-19T02:20:25.812Z,55.91
2018-06-19T02:21:25.811Z,55.71
2018-06-19T02:22:25.797Z,55.71
2018-06-19T02:23:25.790Z,56.01
2018-06-19T02:24:25.787Z,55.61
2018-06-19T02:25:25.779Z,55.61
2018-06-19T02:26:25.748Z,55.80
2018-06-19T02:27:25.740Z,55.91
2018-06-19T02:28:25.730Z,56.01
2018-06-19T02:29:25.747Z,56.01
2018-06-19T02:30:25.705Z,55.71
2018-06-19T02:31:25.691Z,56.10
2018-06-19T02:32:25.678Z,55.91
2018-06-19T02:33:25.668Z,55.91
2018-06-19T02:34:25.659Z,56.01
2018-06-19T02:35:25.672Z,55.91
2018-06-19T02:36:25.640Z,56.10
2018-06-19T02:37:25.625Z,55.91
2018-06-19T02:38:25.614Z,55.71
2018-06-19T02:39:25.618Z,55.71
2018-06-19T02:40:25.615Z,55.91
2018-06-19T02:41:25.592Z,55.71
2018-06-19T02:42:25.572Z,55.91
2018-06-19T02:43:25.558Z,55.71
2018-06-19T02:44:25.545Z,56.21
2018-06-19T02:45:25.568Z,56.10
2018-06-19T02:46:25.528Z,56.01
2018-06-19T02:47:25.515Z,55.91
2018-06-19T02:48:25.507Z,55.80
2018-06-19T02:49:25.495Z,55.91
2018-06-19T02:50:25.485Z,55.80
2018-06-19T02:51:25.534Z,55.51
2018-06-19T02:52:25.456Z,56.01
2018-06-19T02:53:25.452Z,55.91
2018-06-19T02:54:25.442Z,55.91
2018-06-19T02:55:25.432Z,56.10
2018-06-19T02:56:25.412Z,56.10
2018-06-19T02:57:25.420Z,55.91
2018-06-19T02:58:25.413Z,56.01
2018-06-19T02:59:25.385Z,55.91
2018-06-19T03:00:25.423Z,56.10
2018-06-19T03:01:25.369Z,56.01
2018-06-19T03:02:25.394Z,55.80
2018-06-19T03:03:25.338Z,56.21
2018-06-19T03:04:25.374Z,56.01
2018-06-19T03:05:25.394Z,56.21
2018-06-19T03:06:25.327Z,56.01
2018-06-19T03:07:25.314Z,55.80
2018-06-19T03:08:25.285Z,56.21
2018-06-19T03:09:25.270Z,55.91
2018-06-19T03:10:25.262Z,55.91
2018-06-19T03:11:25.250Z,56.01
2018-06-19T03:12:25.284Z,55.91
2018-06-19T03:13:25.231Z,56.30
2018-06-19T03:14:25.216Z,56.21
2018-06-19T03:15:25.203Z,55.80
2018-06-19T03:16:25.191Z,55.71
2018-06-19T03:17:25.181Z,55.31
2018-06-19T03:18:25.189Z,55.61
2018-06-19T03:19:25.161Z,55.51
2018-06-19T03:20:25.153Z,55.80
2018-06-19T03:21:25.143Z,55.41
2018-06-19T03:22:25.130Z,55.71
2018-06-19T03:23:25.135Z,55.71
2018-06-19T03:24:25.104Z,55.71
2018-06-19T03:25:25.100Z,55.71
2018-06-19T03:26:25.086Z,55.91
2018-06-19T03:27:25.073Z,55.71
2018-06-19T03:28:25.081Z,55.41
2018-06-19T03:29:25.050Z,55.51
2018-06-19T03:30:25.192Z,55.21
2018-06-19T03:31:25.032Z,55.51
2018-06-19T03:32:25.057Z,55.61
2018-06-19T03:33:25.048Z,56.10
2018-06-19T03:34:25.111Z,55.61
2018-06-19T03:35:24.986Z,55.61
2018-06-19T03:36:24.974Z,55.61
2018-06-19T03:37:24.963Z,55.61
2018-06-19T03:38:24.954Z,55.80
2018-06-19T03:39:24.967Z,56.01
2018-06-19T03:40:24.935Z,55.80
2018-06-19T03:41:24.918Z,55.31
2018-06-19T03:42:24.922Z,55.61
2018-06-19T03:43:24.904Z,55.61
2018-06-19T03:44:24.910Z,55.51
2018-06-19T03:45:24.883Z,55.61
2018-06-19T03:46:24.868Z,55.61
2018-06-19T03:47:24.854Z,55.41
2018-06-19T03:48:24.841Z,55.41
2018-06-19T03:49:24.852Z,55.71
2018-06-19T03:50:24.822Z,55.51
2018-06-19T03:51:24.813Z,55.61
2018-06-19T03:52:24.804Z,55.51
2018-06-19T03:53:24.793Z,55.61
2018-06-19T03:54:24.799Z,55.61
2018-06-19T03:55:24.766Z,55.61
2018-06-19T03:56:24.752Z,55.51
2018-06-19T03:57:24.745Z,56.01
2018-06-19T03:58:24.735Z,55.61
2018-06-19T03:59:24.748Z,55.61
2018-06-19T04:00:24.707Z,55.51
2018-06-19T04:01:24.799Z,55.91
2018-06-19T04:02:24.688Z,55.41
2018-06-19T04:03:24.679Z,55.51
2018-06-19T04:04:24.668Z,55.41
2018-06-19T04:05:24.679Z,56.10
2018-06-19T04:06:24.644Z,55.51
2018-06-19T04:07:24.631Z,55.91
2018-06-19T04:08:24.617Z,55.61
2018-06-19T04:09:24.604Z,55.51
2018-06-19T04:10:24.646Z,55.41
2018-06-19T04:11:24.591Z,55.91
2018-06-19T04:12:24.578Z,55.41
2018-06-19T04:13:24.560Z,55.51
2018-06-19T04:14:24.550Z,55.61
2018-06-19T04:15:24.573Z,56.01
2018-06-19T04:16:24.533Z,55.51
2018-06-19T04:17:24.519Z,55.80
2018-06-19T04:18:24.515Z,55.41
2018-06-19T04:19:24.495Z,55.51
2018-06-19T04:20:24.489Z,55.51
2018-06-19T04:21:24.500Z,55.91
2018-06-19T04:22:24.460Z,55.71
2018-06-19T04:23:24.450Z,55.51
2018-06-19T04:24:24.442Z,55.41
2018-06-19T04:25:24.431Z,55.61
2018-06-19T04:26:24.437Z,55.61
2018-06-19T04:27:24.404Z,55.71
2018-06-19T04:28:24.411Z,55.71
2018-06-19T04:29:24.387Z,55.71
2018-06-19T04:30:24.375Z,55.71
2018-06-19T04:31:24.381Z,55.61
2018-06-19T04:32:24.346Z,55.51
2018-06-19T04:33:24.390Z,55.61
2018-06-19T04:34:24.328Z,55.61
2018-06-19T04:35:24.321Z,55.61
2018-06-19T04:36:24.336Z,55.71
2018-06-19T04:37:24.299Z,55.61
2018-06-19T04:38:24.287Z,55.80
2018-06-19T04:39:24.274Z,55.51
2018-06-19T04:40:24.261Z,55.51
2018-06-19T04:41:24.250Z,55.21
2018-06-19T04:42:24.259Z,55.31
2018-06-19T04:43:24.232Z,55.31
2018-06-19T04:44:24.223Z,55.31
2018-06-19T04:45:24.207Z,55.31
2018-06-19T04:46:24.196Z,55.31
2018-06-19T04:47:24.217Z,55.31
2018-06-19T04:48:24.181Z,55.51
2018-06-19T04:49:24.206Z,55.31
2018-06-19T04:50:24.158Z,55.41
2018-06-19T04:51:24.145Z,55.80
2018-06-19T04:52:24.131Z,55.31
2018-06-19T04:53:24.153Z,55.51
2018-06-19T04:54:24.112Z,55.71
2018-06-19T04:55:24.100Z,55.71
2018-06-19T04:56:24.087Z,55.51
2018-06-19T04:57:24.082Z,55.61
2018-06-19T04:58:24.067Z,55.41
2018-06-19T04:59:24.079Z,55.71
2018-06-19T05:00:24.051Z,55.51
2018-06-19T05:01:24.047Z,55.61
2018-06-19T05:02:24.025Z,55.71
2018-06-19T05:03:24.016Z,55.80
2018-06-19T05:04:24.026Z,55.31
2018-06-19T05:05:23.998Z,55.71
2018-06-19T05:06:23.984Z,55.41
2018-06-19T05:07:23.982Z,55.80
2018-06-19T05:08:23.957Z,55.51
2018-06-19T05:09:23.971Z,55.61
2018-06-19T05:10:23.941Z,55.61
2018-06-19T05:11:23.931Z,55.41
2018-06-19T05:12:23.923Z,55.51
2018-06-19T05:13:23.919Z,55.51
2018-06-19T05:14:23.927Z,55.51
2018-06-19T05:15:23.887Z,55.21
2018-06-19T05:16:23.874Z,55.51
2018-06-19T05:17:23.873Z,55.21
2018-06-19T05:18:23.858Z,55.51
2018-06-19T05:19:23.845Z,55.51
2018-06-19T05:20:23.853Z,55.31
2018-06-19T05:21:23.822Z,55.51
2018-06-19T05:22:23.815Z,55.41
2018-06-19T05:23:23.805Z,55.41
2018-06-19T05:24:23.797Z,55.31
2018-06-19T05:25:23.807Z,55.31
2018-06-19T05:26:23.774Z,55.21
2018-06-19T05:27:23.763Z,55.21
2018-06-19T05:28:23.750Z,55.51
2018-06-19T05:29:23.736Z,55.61
2018-06-19T05:30:23.769Z,55.51
2018-06-19T05:31:23.739Z,55.51
2018-06-19T05:32:23.714Z,55.21
2018-06-19T05:33:23.693Z,55.31
2018-06-19T05:34:23.698Z,55.31
2018-06-19T05:35:23.677Z,55.80
2018-06-19T05:36:23.710Z,55.41
2018-06-19T05:37:23.662Z,55.71
2018-06-19T05:38:23.643Z,55.31
2018-06-19T05:39:23.629Z,55.51
2018-06-19T05:40:23.617Z,55.51
2018-06-19T05:41:23.608Z,55.51
2018-06-19T05:42:23.619Z,55.51
2018-06-19T05:43:23.590Z,55.31
2018-06-19T05:44:23.578Z,55.31
2018-06-19T05:45:23.571Z,55.51
2018-06-19T05:46:23.668Z,55.21
2018-06-19T05:47:23.563Z,55.61
2018-06-19T05:48:23.533Z,55.51
2018-06-19T05:49:23.528Z,55.41
2018-06-19T05:50:23.517Z,55.51
2018-06-19T05:51:23.501Z,55.51
2018-06-19T05:52:23.507Z,55.61
2018-06-19T05:53:23.479Z,55.21
2018-06-19T05:54:23.472Z,55.51
2018-06-19T05:55:23.475Z,55.51
2018-06-19T05:56:23.472Z,55.31
2018-06-19T05:57:23.486Z,55.51
2018-06-19T05:58:23.430Z,55.21
2018-06-19T05:59:23.459Z,55.31
2018-06-19T06:00:23.403Z,55.31
2018-06-19T06:01:23.392Z,55.51
2018-06-19T06:02:23.383Z,55.21
2018-06-19T06:03:23.397Z,55.51
2018-06-19T06:04:23.368Z,55.51
2018-06-19T06:05:23.351Z,55.51
2018-06-19T06:06:23.342Z,55.31
2018-06-19T06:07:23.337Z,55.21
2018-06-19T06:08:23.355Z,55.21
2018-06-19T06:09:23.318Z,55.31
2018-06-19T06:10:23.300Z,55.51
2018-06-19T06:11:23.291Z,55.51
2018-06-19T06:12:23.275Z,55.31
2018-06-19T06:13:23.362Z,55.41
2018-06-19T06:14:23.255Z,55.51
2018-06-19T06:15:23.250Z,55.41
2018-06-19T06:16:23.244Z,55.41
2018-06-19T06:17:23.230Z,55.61
2018-06-19T06:18:23.223Z,55.31
2018-06-19T06:19:23.222Z,55.31
2018-06-19T06:20:23.190Z,55.31
2018-06-19T06:21:23.188Z,55.21
2018-06-19T06:22:23.176Z,55.11
2018-06-19T06:23:23.161Z,55.31
2018-06-19T06:24:23.169Z,55.41
2018-06-19T06:25:23.141Z,55.41
2018-06-19T06:26:23.130Z,55.41
2018-06-19T06:27:23.123Z,55.31
2018-06-19T06:28:23.112Z,55.61
2018-06-19T06:29:23.120Z,55.51
2018-06-19T06:30:23.089Z,55.31
2018-06-19T06:31:23.137Z,55.61
2018-06-19T06:32:23.062Z,55.51
2018-06-19T06:33:23.052Z,55.21
2018-06-19T06:34:23.072Z,55.51
2018-06-19T06:35:23.036Z,55.41
2018-06-19T06:36:23.030Z,55.31
2018-06-19T06:37:23.009Z,55.31
2018-06-19T06:38:23.002Z,55.21
2018-06-19T06:39:22.994Z,55.51
2018-06-19T06:40:23.023Z,55.21
2018-06-19T06:41:22.999Z,55.41
2018-06-19T06:42:22.961Z,55.41
2018-06-19T06:43:22.948Z,55.41
2018-06-19T06:44:22.936Z,55.51
2018-06-19T06:45:22.953Z,55.51
2018-06-19T06:46:22.928Z,55.31
2018-06-19T06:47:22.910Z,55.41
2018-06-19T06:48:22.932Z,55.41
2018-06-19T06:49:22.889Z,55.41
2018-06-19T06:50:23.007Z,55.61
2018-06-19T06:51:22.884Z,55.41
2018-06-19T06:52:22.851Z,55.41
2018-06-19T06:53:22.853Z,55.51
2018-06-19T06:54:22.833Z,55.41
2018-06-19T06:55:22.822Z,55.61
2018-06-19T06:56:22.828Z,55.51
2018-06-19T06:57:22.797Z,55.41
2018-06-19T06:58:22.792Z,55.31
2018-06-19T06:59:22.820Z,55.61
2018-06-19T07:00:22.784Z,55.21
2018-06-19T07:01:22.789Z,55.51
2018-06-19T07:02:22.750Z,55.41
2018-06-19T07:03:22.740Z,55.41
2018-06-19T07:04:22.724Z,55.51
2018-06-19T07:05:22.713Z,55.31
2018-06-19T07:06:22.703Z,55.51
2018-06-19T07:07:22.717Z,55.41
2018-06-19T07:08:22.687Z,55.21
2018-06-19T07:09:22.671Z,55.41
2018-06-19T07:10:22.662Z,55.51
2018-06-19T07:11:22.657Z,55.21
2018-06-19T07:12:22.687Z,55.31
2018-06-19T07:13:22.642Z,55.21
2018-06-19T07:14:22.623Z,55.01
2018-06-19T07:15:22.607Z,55.11
2018-06-19T07:16:22.595Z,55.51
2018-06-19T07:17:22.612Z,55.31
2018-06-19T07:18:22.577Z,55.31
2018-06-19T07:19:22.583Z,55.11
2018-06-19T07:20:22.562Z,55.21
2018-06-19T07:21:22.549Z,55.21
2018-06-19T07:22:22.585Z,56.01
2018-06-19T07:23:22.522Z,55.41
2018-06-19T07:24:22.512Z,55.51
2018-06-19T07:25:22.506Z,55.71
2018-06-19T07:26:22.507Z,54.81
2018-06-19T07:27:22.482Z,55.21
2018-06-19T07:28:22.485Z,55.71
2018-06-19T07:29:22.456Z,55.11
2018-06-19T07:30:22.448Z,55.51
2018-06-19T07:31:22.440Z,55.11
2018-06-19T07:32:22.432Z,55.01
2018-06-19T07:33:22.443Z,55.41
2018-06-19T07:34:22.408Z,55.41
2018-06-19T07:35:22.396Z,55.01
2018-06-19T07:36:22.383Z,55.41
2018-06-19T07:37:22.373Z,55.31
2018-06-19T07:38:22.511Z,55.31
2018-06-19T07:39:22.356Z,55.31
2018-06-19T07:40:22.346Z,55.31
2018-06-19T07:41:22.328Z,55.11
2018-06-19T07:42:22.321Z,55.31
2018-06-19T07:43:22.311Z,55.41
2018-06-19T07:44:22.324Z,55.51
2018-06-19T07:45:22.293Z,55.41
2018-06-19T07:46:22.280Z,55.31
2018-06-19T07:47:22.266Z,55.51
2018-06-19T07:48:22.253Z,55.31
2018-06-19T07:49:22.262Z,55.31
2018-06-19T07:50:22.236Z,55.41
2018-06-19T07:51:22.227Z,55.31
2018-06-19T07:52:22.215Z,55.41
2018-06-19T07:53:22.204Z,54.81
2018-06-19T07:54:22.208Z,55.11
2018-06-19T07:55:22.179Z,55.51
2018-06-19T07:56:22.165Z,55.71
2018-06-19T07:57:22.231Z,55.31
2018-06-19T07:58:22.149Z,55.11
2018-06-19T07:59:22.153Z,54.91
2018-06-19T08:00:22.119Z,55.61
2018-06-19T08:01:22.109Z,55.21
2018-06-19T08:02:22.101Z,55.61
2018-06-19T08:03:22.092Z,55.31
2018-06-19T08:04:22.110Z,55.11
2018-06-19T08:05:22.072Z,55.51
2018-06-19T08:06:22.059Z,55.51
2018-06-19T08:07:22.046Z,55.61
2018-06-19T08:08:22.033Z,55.61
2018-06-19T08:09:22.019Z,55.31
2018-06-19T08:10:22.043Z,55.41
2018-06-19T08:11:22.059Z,55.31
2018-06-19T08:12:21.995Z,55.01
2018-06-19T08:13:21.995Z,55.11
2018-06-19T08:14:21.976Z,55.51
2018-06-19T08:15:21.967Z,55.31
2018-06-19T08:16:21.972Z,55.41
2018-06-19T08:17:21.936Z,55.31
2018-06-19T08:18:21.927Z,55.51
2018-06-19T08:19:21.910Z,55.51
2018-06-19T08:20:21.896Z,55.61
2018-06-19T08:21:21.908Z,55.71
2018-06-19T08:22:21.877Z,55.11
2018-06-19T08:23:21.870Z,55.61
2018-06-19T08:24:21.862Z,55.61
2018-06-19T08:25:21.849Z,55.51
2018-06-19T08:26:21.865Z,55.41
2018-06-19T08:27:21.827Z,55.11
2018-06-19T08:28:21.809Z,55.71
2018-06-19T08:29:21.808Z,55.11
2018-06-19T08:30:21.793Z,55.01
2018-06-19T08:31:21.801Z,55.71
2018-06-19T08:32:21.769Z,55.51
2018-06-19T08:33:21.758Z,55.11
2018-06-19T08:34:21.747Z,55.51
2018-06-19T08:35:21.737Z,55.41
2018-06-19T08:36:21.870Z,55.11
2018-06-19T08:37:21.718Z,55.61
2018-06-19T08:38:21.704Z,55.01
2018-06-19T08:39:21.689Z,55.41
2018-06-19T08:40:21.681Z,55.01
2018-06-19T08:41:21.683Z,54.81
2018-06-19T08:42:21.658Z,55.61
2018-06-19T08:43:21.650Z,55.51
2018-06-19T08:44:21.637Z,55.51
2018-06-19T08:45:21.622Z,55.41
2018-06-19T08:46:21.629Z,55.71
2018-06-19T08:47:21.600Z,55.31
2018-06-19T08:48:21.597Z,55.11
2018-06-19T08:49:21.580Z,55.21
2018-06-19T08:50:21.568Z,55.11
2018-06-19T08:51:21.571Z,55.61
2018-06-19T08:52:21.552Z,55.31
2018-06-19T08:53:21.533Z,55.21
2018-06-19T08:54:21.525Z,55.31
2018-06-19T08:55:21.528Z,55.61
2018-06-19T08:56:21.524Z,55.41
2018-06-19T08:57:21.495Z,55.11
2018-06-19T08:58:21.480Z,55.41
2018-06-19T08:59:21.473Z,55.31
2018-06-19T09:00:21.491Z,55.31
2018-06-19T09:01:21.468Z,55.31
2018-06-19T09:02:21.435Z,54.81
2018-06-19T09:03:21.423Z,54.81
2018-06-19T09:04:21.437Z,54.91
2018-06-19T09:05:21.398Z,55.21
2018-06-19T09:06:21.409Z,55.21
2018-06-19T09:07:21.383Z,55.41
2018-06-19T09:08:21.376Z,55.31
2018-06-19T09:09:21.359Z,55.41
2018-06-19T09:10:21.359Z,55.11
2018-06-19T09:11:21.356Z,55.71
2018-06-19T09:12:21.328Z,55.61
2018-06-19T09:13:21.378Z,55.21
2018-06-19T09:14:21.299Z,55.21
2018-06-19T09:15:21.302Z,55.80
2018-06-19T09:16:21.299Z,55.31
2018-06-19T09:17:21.318Z,55.71
2018-06-19T09:18:21.267Z,55.71
2018-06-19T09:19:21.249Z,55.31
2018-06-19T09:20:21.239Z,56.01
2018-06-19T09:21:21.257Z,55.21
2018-06-19T09:22:21.217Z,55.21
2018-06-19T09:23:21.197Z,55.21
2018-06-19T09:24:21.189Z,55.11
2018-06-19T09:25:21.178Z,55.41
2018-06-19T09:26:21.186Z,55.31
2018-06-19T09:27:21.162Z,55.21
2018-06-19T09:28:21.149Z,55.61
2018-06-19T09:29:21.139Z,55.51
2018-06-19T09:30:21.130Z,55.11
2018-06-19T09:31:21.199Z,55.71
2018-06-19T09:32:21.103Z,55.61
2018-06-19T09:33:21.093Z,55.31
2018-06-19T09:34:21.085Z,55.11
2018-06-19T09:35:21.110Z,55.21
2018-06-19T09:36:21.079Z,55.11
2018-06-19T09:37:21.059Z,55.61
2018-06-19T09:38:21.037Z,55.71
2018-06-19T09:39:21.038Z,55.11
2018-06-19T09:40:21.019Z,55.41
2018-06-19T09:41:21.040Z,55.31
2018-06-19T09:42:21.022Z,55.31
2018-06-19T09:43:20.984Z,55.41
2018-06-19T09:44:20.976Z,55.31
2018-06-19T09:45:20.968Z,55.31
2018-06-19T09:46:20.986Z,55.41
2018-06-19T09:47:20.956Z,55.11
2018-06-19T09:48:20.939Z,55.31
2018-06-19T09:49:20.935Z,55.21
2018-06-19T09:50:20.912Z,56.01
2018-06-19T09:51:20.949Z,55.21
2018-06-19T09:52:20.893Z,55.11
2018-06-19T09:53:20.883Z,55.21
2018-06-19T09:54:20.884Z,55.41
2018-06-19T09:55:20.861Z,55.80
2018-06-19T09:56:20.851Z,55.11
2018-06-19T09:57:20.857Z,55.11
2018-06-19T09:58:20.864Z,55.21
2018-06-19T09:59:20.891Z,55.80
2018-06-19T10:00:20.809Z,55.71
2018-06-19T10:01:20.799Z,55.51
2018-06-19T10:02:20.819Z,55.31
2018-06-19T10:03:20.774Z,55.51
2018-06-19T10:04:20.765Z,55.31
2018-06-19T10:05:20.756Z,55.31
2018-06-19T10:06:20.899Z,54.91
2018-06-19T10:07:20.731Z,55.71
2018-06-19T10:08:20.755Z,55.51
2018-06-19T10:09:20.713Z,55.21
2018-06-19T10:10:20.697Z,55.31
2018-06-19T10:11:20.704Z,55.11
2018-06-19T10:12:20.679Z,55.21
2018-06-19T10:13:20.669Z,55.31
2018-06-19T10:14:20.701Z,55.11
2018-06-19T10:15:20.644Z,55.01
2018-06-19T10:16:20.635Z,55.71
2018-06-19T10:17:20.624Z,55.61
2018-06-19T10:18:20.612Z,55.31
2018-06-19T10:19:20.628Z,55.71
2018-06-19T10:20:20.595Z,55.41
2018-06-19T10:21:20.582Z,55.01
2018-06-19T10:22:20.570Z,55.41
2018-06-19T10:23:20.566Z,55.51
2018-06-19T10:24:20.582Z,55.11
2018-06-19T10:25:20.547Z,55.21
2018-06-19T10:26:20.535Z,55.61
2018-06-19T10:27:20.518Z,55.11
2018-06-19T10:28:20.508Z,55.51
2018-06-19T10:29:20.497Z,54.91
2018-06-19T10:30:20.506Z,55.01
2018-06-19T10:31:20.483Z,55.01
2018-06-19T10:32:20.469Z,55.61
2018-06-19T10:33:20.464Z,55.21
2018-06-19T10:34:20.470Z,55.21
2018-06-19T10:35:20.450Z,55.41
2018-06-19T10:36:20.422Z,55.21
2018-06-19T10:37:20.414Z,55.61
2018-06-19T10:38:20.405Z,55.11
2018-06-19T10:39:20.389Z,55.31
2018-06-19T10:40:20.400Z,55.01
2018-06-19T10:41:20.369Z,55.41
2018-06-19T10:42:20.357Z,55.21
2018-06-19T10:43:20.353Z,55.31
2018-06-19T10:44:20.341Z,55.71
2018-06-19T10:45:20.354Z,55.21
2018-06-19T10:46:20.322Z,55.21
2018-06-19T10:47:20.301Z,55.31
2018-06-19T10:48:20.297Z,55.21
2018-06-19T10:49:20.282Z,55.51
2018-06-19T10:50:20.268Z,55.31
2018-06-19T10:51:20.283Z,55.41
2018-06-19T10:52:20.251Z,54.91
2018-06-19T10:53:20.239Z,54.91
2018-06-19T10:54:20.232Z,54.81
2018-06-19T10:55:20.222Z,55.21
2018-06-19T10:56:20.229Z,55.41
2018-06-19T10:57:20.199Z,55.41
2018-06-19T10:58:20.202Z,55.31
2018-06-19T10:59:20.176Z,55.31
2018-06-19T11:00:20.164Z,55.41
2018-06-19T11:01:20.171Z,55.31
2018-06-19T11:02:20.141Z,55.61
2018-06-19T11:03:20.137Z,55.31
2018-06-19T11:04:20.122Z,55.21
2018-06-19T11:05:20.111Z,55.31
2018-06-19T11:06:20.124Z,55.01
2018-06-19T11:07:20.103Z,55.61
2018-06-19T11:08:20.128Z,55.21
2018-06-19T11:09:20.071Z,55.41
2018-06-19T11:10:20.059Z,55.71
2018-06-19T11:11:20.066Z,55.41
2018-06-19T11:12:20.033Z,55.01
2018-06-19T11:13:20.023Z,55.01
2018-06-19T11:14:20.009Z,55.51
2018-06-19T11:15:20.004Z,55.61
2018-06-19T11:16:19.990Z,55.31
2018-06-19T11:17:19.998Z,55.71
2018-06-19T11:18:19.972Z,55.11
2018-06-19T11:19:19.953Z,55.21
2018-06-19T11:20:19.948Z,55.31
2018-06-19T11:21:19.957Z,55.31
2018-06-19T11:22:19.952Z,55.51
2018-06-19T11:23:19.930Z,55.61
2018-06-19T11:24:19.941Z,55.71
2018-06-19T11:25:19.892Z,55.31
2018-06-19T11:26:19.878Z,55.01
2018-06-19T11:27:19.877Z,55.31
2018-06-19T11:28:19.881Z,55.51
2018-06-19T11:29:19.853Z,55.31
2018-06-19T11:30:19.843Z,55.01
2018-06-19T11:31:19.832Z,55.61
2018-06-19T11:32:19.820Z,55.71
2018-06-19T11:33:19.807Z,55.41
2018-06-19T11:34:19.816Z,55.11
2018-06-19T11:35:19.795Z,55.21
2018-06-19T11:36:19.779Z,55.41
2018-06-19T11:37:19.768Z,55.01
2018-06-19T11:38:19.780Z,55.41
2018-06-19T11:39:19.743Z,55.31
2018-06-19T11:40:19.734Z,55.51
2018-06-19T11:41:19.726Z,55.11
2018-06-19T11:42:19.717Z,55.31
2018-06-19T11:43:19.732Z,55.41
2018-06-19T11:44:19.691Z,55.31
2018-06-19T11:45:19.680Z,55.11
2018-06-19T11:46:19.667Z,55.21
2018-06-19T11:47:19.667Z,54.91
2018-06-19T11:48:19.679Z,54.81
2018-06-19T11:49:19.802Z,55.11
2018-06-19T11:50:19.632Z,55.41
2018-06-19T11:51:19.629Z,55.41
2018-06-19T11:52:19.606Z,55.31
2018-06-19T11:53:19.609Z,55.41
2018-06-19T11:54:19.604Z,55.31
2018-06-19T11:55:19.606Z,55.31
2018-06-19T11:56:19.566Z,55.51
2018-06-19T11:57:19.553Z,55.31
2018-06-19T11:58:19.540Z,55.41
2018-06-19T11:59:19.560Z,55.31
2018-06-19T12:00:19.523Z,55.51
2018-06-19T12:01:19.514Z,55.01
2018-06-19T12:02:19.511Z,55.11
2018-06-19T12:03:19.487Z,55.31
2018-06-19T12:04:19.509Z,55.31
2018-06-19T12:05:19.469Z,55.41
2018-06-19T12:06:19.457Z,55.51
2018-06-19T12:07:19.453Z,55.01
2018-06-19T12:08:19.441Z,55.61
2018-06-19T12:09:19.441Z,55.61
2018-06-19T12:10:19.449Z,55.11
2018-06-19T12:11:19.403Z,55.31
2018-06-19T12:12:19.394Z,55.51
2018-06-19T12:13:19.387Z,55.51
2018-06-19T12:14:19.377Z,55.71
2018-06-19T12:15:19.359Z,55.31
2018-06-19T12:16:19.385Z,54.91
2018-06-19T12:17:19.348Z,55.41
2018-06-19T12:18:19.327Z,55.31
2018-06-19T12:19:19.326Z,55.01
2018-06-19T12:20:19.312Z,55.51
2018-06-19T12:21:19.320Z,55.21
2018-06-19T12:22:19.334Z,55.61
2018-06-19T12:23:19.275Z,55.11
2018-06-19T12:24:19.265Z,55.31
2018-06-19T12:25:19.256Z,55.21
2018-06-19T12:26:19.267Z,55.41
2018-06-19T12:27:19.236Z,55.51
2018-06-19T12:28:19.228Z,55.21
2018-06-19T12:29:19.209Z,56.10
2018-06-19T12:30:19.197Z,55.41
2018-06-19T12:31:19.212Z,55.41
2018-06-19T12:32:19.181Z,55.31
2018-06-19T12:33:19.167Z,55.31
2018-06-19T12:34:19.159Z,55.31
2018-06-19T12:35:19.140Z,55.11
2018-06-19T12:36:19.151Z,55.21
2018-06-19T12:37:19.163Z,55.61
2018-06-19T12:38:19.108Z,55.61
2018-06-19T12:39:19.104Z,55.21
2018-06-19T12:40:19.089Z,55.61
2018-06-19T12:41:19.104Z,55.31
2018-06-19T12:42:19.069Z,55.31
2018-06-19T12:43:19.053Z,55.21
2018-06-19T12:44:19.043Z,55.31
2018-06-19T12:45:19.035Z,55.21
2018-06-19T12:46:19.026Z,55.21
2018-06-19T12:47:19.039Z,55.61
2018-06-19T12:48:19.001Z,55.51
2018-06-19T12:49:19.007Z,55.21
2018-06-19T12:50:18.977Z,55.11
2018-06-19T12:51:18.974Z,55.21
2018-06-19T12:52:18.958Z,55.11